首页
METAR-TAF:

METAR-TAF

机场 :

里士满国际机场

里士满, 弗吉尼亚州, 美国

纬度: 37-30-40N, 经度: 077-19-24W, 海拔: 51米

当前天气观测

该预报发布于18分钟前的07:54 UTC
风速3节,风向
温度 5°C
湿度 81%
气压 1019 hPa
能見度: 16.1公里
多云层高于10000英尺
多云层高于22000英尺

METAR: KRIC 170754Z 35003KT 10SM BKN100 BKN220 05/02 A3010 RMK AO2 SLP198 T00500022 $

时间: 03:12 (08:12 UTC)

预报

该预报发布于2小时和52分钟前的05:20 UTC
预报有效从17日的 06点(UTC)到 18日的 06点(UTC)
风速4节,风向西南
能見度: 10公里
多云层高于10000英尺
从 17日的 0800点(UTC)
风速6节,风向
能見度: 10公里
多云层高于20000英尺
从 17日的 1400点(UTC)
风速8节,风向北转东北
能見度: 10公里
散云层高于25000英尺
从 17日的 2000点(UTC)
风速6节,风向东转东北
能見度: 10公里
散云层高于20000英尺
从 18日的 0200点(UTC)
风速5节,风向
能見度: 10公里
散云层高于15000英尺

TAF: KRIC 170520Z 1706/1806 22004KT P6SM BKN100 FM170800 36006KT P6SM BKN200 FM171400 03008KT P6SM SCT250 FM172000 07006KT P6SM SCT200 FM180200 10005KT P6SM SCT150

超过4000个机场的气象观测和天气预报(METAR&TAF报告)。

可查询的气象台以黄色和红色小点在地图上表示。

将鼠标移到小点上方,可查看气象台名称。

然后点击查看天气观测和预报。

如需切换地图:点击带黑十字的绿色按钮放大地图;点击带横线的绿色按钮缩小地图;或者点击绿色箭头查看邻近地区的地图。


METAR-TAF: